Time;durP1;ratioP1;P1;durP2;ratioP2;P2;SDS_P1;SDS_P2;PMS_P1;PMS_P2;Temp;Humidity;BMP_temperature;BMP_pressure;BME280_temperature;BME280_humidity;BME280_pressure;Samples;Min_cycle;Max_cycle;Signal;HPM_P1;HPM_P2
2021/01/01 05:18:28;;;;;;;5.40;3.95;;;1.40;99.90;;;;;;5927756;23;20072;-73
2021/01/01 05:21:00;;;;;;;6.93;4.53;;;1.40;99.90;;;;;;4993971;28;20050;-73
2021/01/01 05:23:29;;;;;;;7.18;4.68;;;1.50;99.90;;;;;;4995623;28;20385;-73
2021/01/01 05:26:11;;;;;;;7.25;3.92;;;1.50;99.90;;;;;;4995424;28;20057;-73
2021/01/01 05:28:49;;;;;;;6.20;4.18;;;1.50;99.90;;;;;;4995378;28;20030;-74
2021/01/01 05:31:18;;;;;;;7.47;3.95;;;1.60;99.90;;;;;;4995450;28;20018;-76
2021/01/01 05:33:55;;;;;;;6.67;3.80;;;1.60;99.90;;;;;;4995594;28;20511;-81
2021/01/01 05:36:36;;;;;;;6.20;4.13;;;1.50;99.90;;;;;;4995854;28;20042;-72
2021/01/01 05:39:05;;;;;;;6.88;4.60;;;1.50;99.90;;;;;;4995728;28;20037;-73
2021/01/01 05:41:39;;;;;;;6.87;4.03;;;1.50;99.90;;;;;;4995437;28;20552;-76
2021/01/01 05:44:11;;;;;;;7.15;4.47;;;1.70;99.90;;;;;;4995434;28;20039;-83
2021/01/01 05:46:54;;;;;;;8.40;4.70;;;2.00;99.90;;;;;;4995147;28;20023;-83
2021/01/01 05:49:20;;;;;;;94.97;38.97;;;1.90;99.90;;;;;;4995429;28;20034;-87
2021/01/01 05:52:16;;;;;;;11.10;5.55;;;1.80;99.90;;;;;;4994497;28;20030;-81
2021/01/01 05:54:46;;;;;;;8.50;5.00;;;1.80;99.90;;;;;;4993599;28;20034;-78
2021/01/01 05:57:13;;;;;;;8.88;5.32;;;1.70;99.90;;;;;;4994352;28;20089;-93
2021/01/01 05:59:47;;;;;;;8.27;5.20;;;1.70;99.90;;;;;;4996034;28;20040;-81
2021/01/01 06:02:13;;;;;;;7.60;5.10;;;1.60;99.90;;;;;;4994706;28;20034;-75
2021/01/01 06:04:40;;;;;;;7.97;4.78;;;1.60;99.90;;;;;;4994386;28;20375;-75
2021/01/01 06:07:10;;;;;;;6.97;4.90;;;1.60;99.90;;;;;;4993090;28;20025;-75
2021/01/01 06:09:37;;;;;;;9.35;5.63;;;1.60;99.90;;;;;;4994469;28;20441;-75
2021/01/01 06:12:09;;;;;;;9.88;5.45;;;1.60;99.90;;;;;;4994577;28;20030;-74
2021/01/01 06:14:39;;;;;;;8.00;4.72;;;1.60;99.90;;;;;;4994517;28;20034;-73
2021/01/01 06:17:11;;;;;;;9.15;4.65;;;1.60;99.90;;;;;;4975253;28;20081;-78
2021/01/01 06:19:43;;;;;;;7.75;5.05;;;1.60;99.90;;;;;;4974989;28;20413;-78
2021/01/01 06:22:12;;;;;;;8.52;4.72;;;1.60;99.90;;;;;;4975553;28;20027;-72
2021/01/01 06:24:44;;;;;;;8.27;4.40;;;1.50;99.90;;;;;;4984650;28;20029;-77
2021/01/01 06:27:12;;;;;;;9.73;5.00;;;1.50;99.90;;;;;;4994166;28;20034;-77
2021/01/01 06:29:41;;;;;;;8.90;4.97;;;1.50;99.90;;;;;;4994604;28;20082;-74
2021/01/01 06:32:08;;;;;;;6.28;4.13;;;1.50;99.90;;;;;;4994502;28;20026;-74
2021/01/01 06:34:34;;;;;;;7.35;4.18;;;1.40;99.90;;;;;;4994616;28;20030;-74
2021/01/01 06:37:00;;;;;;;10.40;4.10;;;1.40;99.90;;;;;;4994247;28;20045;-74
2021/01/01 06:39:45;;;;;;;8.32;4.07;;;1.40;99.90;;;;;;4994490;28;20058;-74
2021/01/01 06:42:11;;;;;;;7.75;4.78;;;1.30;99.90;;;;;;4993047;28;20069;-74
2021/01/01 06:44:42;;;;;;;8.20;4.22;;;1.30;99.90;;;;;;4994299;28;20105;-74
2021/01/01 06:47:10;;;;;;;8.43;4.68;;;1.30;99.90;;;;;;4994498;28;20085;-74
2021/01/01 06:49:39;;;;;;;10.75;4.82;;;1.30;99.90;;;;;;4994174;28;20033;-74
2021/01/01 06:52:09;;;;;;;6.60;4.18;;;1.30;99.90;;;;;;4994453;28;20105;-74
2021/01/01 06:54:53;;;;;;;8.27;4.00;;;1.30;99.90;;;;;;4994320;28;20458;-74
2021/01/01 06:57:20;;;;;;;6.70;3.88;;;1.30;99.90;;;;;;4994051;28;20137;-74
2021/01/01 06:59:46;;;;;;;6.50;3.85;;;1.40;99.90;;;;;;4993996;28;20061;-74
2021/01/01 07:02:26;;;;;;;7.55;3.53;;;1.40;99.90;;;;;;4993949;28;20446;-73
2021/01/01 07:04:52;;;;;;;7.45;4.40;;;1.40;99.90;;;;;;4993786;28;20512;-74
2021/01/01 07:07:44;;;;;;;6.75;4.30;;;1.40;99.90;;;;;;4993856;28;20065;-81
2021/01/01 07:10:34;;;;;;;8.82;4.55;;;1.40;99.90;;;;;;4992465;28;20031;-77
2021/01/01 07:13:18;;;;;;;6.10;4.07;;;3.60;99.90;;;;;;4993943;28;20031;-72
2021/01/01 07:15:43;;;;;;;5.45;3.63;;;3.70;99.90;;;;;;4993413;28;20033;-71
2021/01/01 07:18:09;;;;;;;5.80;3.30;;;3.10;99.90;;;;;;4993610;28;20026;-70
2021/01/01 07:20:39;;;;;;;5.03;3.50;;;2.80;99.90;;;;;;4993346;28;20027;-70
2021/01/01 07:23:05;;;;;;;6.50;3.83;;;2.60;99.90;;;;;;4993129;28;20031;-72
2021/01/01 07:25:36;;;;;;;4.38;2.72;;;2.30;99.90;;;;;;4993450;28;20030;-75
2021/01/01 07:28:04;;;;;;;5.95;2.88;;;2.00;99.90;;;;;;4993859;28;20046;-74
2021/01/01 07:30:32;;;;;;;5.07;3.50;;;1.80;99.90;;;;;;4993308;28;20481;-73
2021/01/01 07:32:58;;;;;;;4.30;3.30;;;1.70;99.90;;;;;;4993622;28;20401;-83
2021/01/01 07:35:25;;;;;;;5.30;3.45;;;1.60;99.90;;;;;;4993345;28;20045;-77
2021/01/01 07:37:54;;;;;;;5.55;3.47;;;1.50;99.90;;;;;;4993110;28;20106;-77
2021/01/01 07:40:20;;;;;;;4.38;3.20;;;1.50;99.90;;;;;;4993349;28;20027;-81
2021/01/01 07:42:51;;;;;;;5.30;3.40;;;1.50;99.90;;;;;;4993583;28;20019;-81
2021/01/01 07:45:17;;;;;;;6.55;4.13;;;1.40;99.90;;;;;;4993207;28;20502;-81
2021/01/01 07:47:44;;;;;;;5.80;3.17;;;1.40;99.90;;;;;;4993359;28;20061;-81
2021/01/01 07:50:19;;;;;;;5.97;3.88;;;1.40;99.90;;;;;;4993055;28;20502;-80
2021/01/01 07:52:45;;;;;;;4.13;2.97;;;1.40;99.90;;;;;;4992979;28;20027;-80
2021/01/01 07:55:19;;;;;;;5.28;3.55;;;1.30;99.90;;;;;;4992918;28;20125;-79
2021/01/01 07:57:44;;;;;;;4.47;3.45;;;1.20;99.90;;;;;;4992788;28;20062;-73
2021/01/01 08:00:11;;;;;;;5.13;3.20;;;1.30;99.90;;;;;;4992789;28;20070;-74
2021/01/01 08:02:38;;;;;;;4.38;3.22;;;1.30;99.90;;;;;;4993193;28;20057;-72
2021/01/01 08:05:04;;;;;;;4.38;3.20;;;1.30;99.90;;;;;;4992713;28;20022;-72
2021/01/01 08:07:30;;;;;;;5.85;3.28;;;1.30;99.90;;;;;;4992805;28;20505;-72
2021/01/01 08:09:56;;;;;;;3.92;2.97;;;1.40;99.90;;;;;;4992184;28;20030;-72
2021/01/01 08:12:22;;;;;;;4.60;3.20;;;1.30;99.90;;;;;;4992469;28;20026;-72
2021/01/01 08:14:52;;;;;;;5.63;3.80;;;1.30;99.90;;;;;;4991928;28;20022;-70
2021/01/01 08:17:23;;;;;;;4.63;3.30;;;1.30;99.90;;;;;;4992742;28;20042;-73
2021/01/01 08:19:49;;;;;;;5.22;3.17;;;1.30;99.90;;;;;;4992291;28;20046;-73
2021/01/01 08:22:22;;;;;;;5.43;3.65;;;1.40;99.90;;;;;;4992928;28;20030;-73
2021/01/01 08:24:53;;;;;;;5.05;3.28;;;1.30;99.90;;;;;;4992753;28;20034;-74
2021/01/01 08:27:24;;;;;;;4.15;3.20;;;1.40;99.90;;;;;;4992652;28;20026;-74
2021/01/01 08:29:51;;;;;;;3.97;3.17;;;1.40;99.90;;;;;;4992726;28;20093;-75
2021/01/01 08:32:18;;;;;;;5.05;3.33;;;1.40;99.90;;;;;;4992561;28;20109;-77
2021/01/01 08:34:52;;;;;;;5.28;3.33;;;1.50;99.90;;;;;;4992368;28;20030;-73
2021/01/01 08:37:22;;;;;;;4.05;3.10;;;1.50;99.90;;;;;;4992424;28;20482;-73
2021/01/01 08:40:03;;;;;;;4.22;3.00;;;1.50;99.90;;;;;;4992654;28;20433;-72
2021/01/01 08:42:38;;;;;;;5.55;3.80;;;1.40;99.90;;;;;;4992753;28;20034;-73
2021/01/01 08:45:09;;;;;;;4.50;3.20;;;1.40;99.90;;;;;;4992552;28;20117;-73
2021/01/01 08:47:42;;;;;;;4.47;3.50;;;1.40;99.90;;;;;;4992336;28;20081;-73
2021/01/01 08:50:22;;;;;;;4.05;3.03;;;1.40;99.90;;;;;;4992438;28;20023;-73
2021/01/01 08:52:51;;;;;;;5.35;3.45;;;1.40;99.90;;;;;;4992599;28;20385;-73
2021/01/01 08:55:17;;;;;;;4.57;3.58;;;1.40;99.90;;;;;;4992293;28;20045;-73
2021/01/01 08:57:43;;;;;;;5.00;3.47;;;1.40;99.90;;;;;;4991695;28;20484;-73
2021/01/01 09:00:09;;;;;;;4.63;3.45;;;1.30;99.90;;;;;;4991916;28;20134;-73
2021/01/01 09:02:36;;;;;;;4.35;3.22;;;1.30;99.90;;;;;;4992357;28;20026;-72
2021/01/01 09:05:06;;;;;;;4.22;3.25;;;1.30;99.90;;;;;;4992086;28;20061;-72
2021/01/01 09:07:32;;;;;;;5.95;2.97;;;1.30;99.90;;;;;;4991158;28;20034;-72
2021/01/01 09:10:15;;;;;;;4.75;3.30;;;1.30;99.90;;;;;;4992045;28;20524;-73
2021/01/01 09:12:40;;;;;;;6.47;5.00;;;1.30;99.90;;;;;;4992208;28;20034;-76
2021/01/01 09:15:07;;;;;;;4.47;2.88;;;1.30;99.90;;;;;;4991897;28;20077;-78
2021/01/01 09:17:32;;;;;;;4.45;3.60;;;1.20;99.90;;;;;;4991148;28;20655;-77
2021/01/01 09:20:05;;;;;;;5.10;3.70;;;1.20;99.90;;;;;;4991579;28;20042;-79
2021/01/01 09:22:32;;;;;;;4.10;3.13;;;1.20;99.90;;;;;;4991948;28;20363;-80
2021/01/01 09:25:21;;;;;;;4.43;3.28;;;1.20;99.90;;;;;;4991963;28;20094;-81
2021/01/01 09:27:47;;;;;;;5.00;3.28;;;1.30;99.90;;;;;;4994346;28;20117;-80
2021/01/01 09:30:18;;;;;;;5.82;3.60;;;1.30;99.90;;;;;;4995870;28;20447;-83
2021/01/01 09:32:45;;;;;;;4.78;3.33;;;1.30;99.90;;;;;;4995556;28;20058;-83
2021/01/01 09:35:13;;;;;;;3.78;3.20;;;1.20;99.90;;;;;;4995552;28;20026;-79
2021/01/01 09:37:55;;;;;;;6.32;3.45;;;1.20;99.90;;;;;;4995759;28;20038;-77
2021/01/01 09:40:24;;;;;;;4.20;3.20;;;1.20;99.90;;;;;;4995354;28;20038;-79
2021/01/01 09:42:50;;;;;;;4.85;3.30;;;1.20;99.90;;;;;;4995396;28;20027;-82
2021/01/01 09:45:17;;;;;;;4.50;3.30;;;1.60;99.90;;;;;;4995596;28;20030;-75
2021/01/01 09:47:43;;;;;;;5.95;2.97;;;2.20;99.90;;;;;;4995286;28;20034;-79
2021/01/01 09:50:10;;;;;;;6.43;3.70;;;2.20;99.90;;;;;;4995057;28;20025;-76
2021/01/01 09:52:36;;;;;;;4.45;3.15;;;2.40;99.90;;;;;;4995069;28;20099;-79
2021/01/01 09:55:04;;;;;;;4.68;3.17;;;2.20;99.90;;;;;;4995028;28;20023;-79
2021/01/01 09:57:29;;;;;;;5.38;3.80;;;1.90;99.90;;;;;;4995358;28;20039;-79
2021/01/01 09:59:56;;;;;;;5.40;3.75;;;1.70;99.90;;;;;;4994871;28;20477;-76
2021/01/01 10:02:22;;;;;;;5.97;3.88;;;1.60;99.90;;;;;;4997010;28;20049;-76
2021/01/01 10:04:48;;;;;;;4.47;3.47;;;1.50;99.90;;;;;;4995441;28;20454;-77
2021/01/01 10:07:15;;;;;;;4.40;2.90;;;1.40;99.90;;;;;;4994988;28;20105;-76
2021/01/01 10:09:42;;;;;;;6.03;3.83;;;1.30;99.90;;;;;;4994818;28;20053;-77
2021/01/01 10:12:08;;;;;;;5.03;3.10;;;1.30;99.90;;;;;;4994760;28;20022;-77
2021/01/01 10:14:35;;;;;;;3.83;3.03;;;1.30;99.90;;;;;;4994790;28;20022;-77
2021/01/01 10:17:00;;;;;;;4.63;3.42;;;1.20;99.90;;;;;;4994775;28;20042;-77
2021/01/01 10:19:26;;;;;;;5.10;3.60;;;1.20;99.90;;;;;;4994499;28;20050;-81
2021/01/01 10:21:52;;;;;;;4.72;3.35;;;1.20;99.90;;;;;;4994819;28;20378;-80
2021/01/01 10:24:18;;;;;;;4.03;3.00;;;1.20;99.90;;;;;;4994913;28;20026;-78
2021/01/01 10:26:51;;;;;;;5.00;2.33;;;1.20;99.90;;;;;;4994614;28;20110;-79
2021/01/01 10:29:17;;;;;;;4.30;3.05;;;1.10;99.90;;;;;;4994867;28;20109;-81
2021/01/01 10:31:44;;;;;;;3.15;2.80;;;1.10;99.90;;;;;;4993446;28;20524;-81
2021/01/01 10:34:10;;;;;;;4.70;3.38;;;1.10;99.90;;;;;;4994624;28;20022;-87
2021/01/01 10:36:38;;;;;;;3.35;2.70;;;1.10;99.90;;;;;;4994420;28;20060;-84
2021/01/01 10:39:05;;;;;;;5.40;3.25;;;1.10;99.90;;;;;;4994783;28;20532;-86
2021/01/01 10:41:31;;;;;;;4.18;3.22;;;1.10;99.90;;;;;;4994505;28;20035;-76
2021/01/01 10:43:56;;;;;;;3.70;2.92;;;1.20;99.90;;;;;;4994175;28;20026;-74
2021/01/01 10:46:22;;;;;;;5.13;3.38;;;1.20;99.90;;;;;;4993726;28;20070;-74
2021/01/01 10:48:48;;;;;;;4.38;3.13;;;1.90;99.90;;;;;;4993978;28;20029;-73
2021/01/01 10:51:23;;;;;;;4.38;3.20;;;1.90;99.90;;;;;;4993988;28;20022;-74
2021/01/01 10:53:49;;;;;;;3.83;2.92;;;1.70;99.90;;;;;;4994279;28;20030;-74
2021/01/01 10:56:26;;;;;;;3.15;2.67;;;1.50;99.90;;;;;;4993858;28;20068;-74
2021/01/01 10:58:52;;;;;;;3.92;3.00;;;1.30;99.90;;;;;;4994166;28;20054;-74
2021/01/01 11:01:19;;;;;;;4.10;2.78;;;1.30;99.90;;;;;;4993892;28;20033;-74
2021/01/01 11:03:46;;;;;;;5.32;3.40;;;1.30;99.90;;;;;;4993864;28;20077;-74
2021/01/01 11:06:12;;;;;;;3.92;2.97;;;1.30;99.90;;;;;;4993993;28;20030;-74
2021/01/01 11:08:42;;;;;;;3.60;2.67;;;1.20;99.90;;;;;;4993799;28;20080;-74
2021/01/01 11:11:13;;;;;;;3.10;2.72;;;1.20;99.90;;;;;;4992456;28;20026;-73
2021/01/01 11:13:58;;;;;;;3.60;2.78;;;1.20;99.90;;;;;;4993755;28;20525;-73
2021/01/01 12:22:15;;;;;;;2.92;2.22;;;0.80;99.90;;;;;;4992522;28;20115;-77
2021/01/01 12:24:47;;;;;;;3.50;2.03;;;0.70;99.90;;;;;;4991859;28;20033;-75
2021/01/01 12:27:19;;;;;;;3.10;2.60;;;0.70;99.90;;;;;;4992369;28;20027;-77
2021/01/01 12:29:46;;;;;;;2.60;1.95;;;0.70;99.90;;;;;;4992635;28;20027;-82
2021/01/01 12:32:14;;;;;;;2.65;2.05;;;0.80;99.90;;;;;;4992982;28;20061;-81
2021/01/01 12:34:39;;;;;;;2.80;2.10;;;0.90;99.90;;;;;;4992659;28;20104;-75
2021/01/01 12:37:06;;;;;;;2.97;2.30;;;0.90;99.90;;;;;;4992513;28;20070;-79
2021/01/01 12:39:31;;;;;;;2.40;2.20;;;3.00;99.90;;;;;;4992697;28;20109;-79
2021/01/01 12:41:57;;;;;;;1.92;1.73;;;2.80;99.90;;;;;;4992239;28;20509;-79
2021/01/01 12:44:23;;;;;;;2.30;1.90;;;2.30;99.90;;;;;;4992449;28;20027;-79
2021/01/01 12:46:51;;;;;;;2.85;1.90;;;1.90;99.90;;;;;;4992771;28;20027;-79
2021/01/01 12:49:17;;;;;;;2.38;1.98;;;1.70;99.90;;;;;;4992302;28;20033;-79
2021/01/01 12:51:43;;;;;;;3.42;2.10;;;1.50;99.90;;;;;;4992341;28;20393;-79
2021/01/01 12:54:09;;;;;;;2.08;1.88;;;1.40;99.90;;;;;;4992238;28;20022;-79
2021/01/01 12:56:36;;;;;;;2.17;1.92;;;1.30;99.90;;;;;;4992435;28;20027;-79
2021/01/01 12:59:02;;;;;;;2.50;2.30;;;1.30;99.90;;;;;;4992581;28;20034;-79
2021/01/01 13:01:31;;;;;;;3.55;2.30;;;1.20;99.90;;;;;;4996235;28;20077;-79
2021/01/01 13:03:57;;;;;;;2.60;2.20;;;1.10;99.90;;;;;;4996214;28;20031;-79
2021/01/01 13:06:23;;;;;;;11.00;5.25;;;1.20;99.90;;;;;;4996029;28;20027;-80
2021/01/01 13:08:49;;;;;;;7.25;5.38;;;1.10;99.90;;;;;;4996382;28;20022;-79
2021/01/01 13:11:14;;;;;;;4.55;3.38;;;1.10;99.90;;;;;;4996126;28;20430;-78
2021/01/01 13:13:40;;;;;;;2.10;1.88;;;1.10;99.90;;;;;;4996260;28;20034;-74
2021/01/01 13:16:06;;;;;;;3.90;2.38;;;2.50;99.90;;;;;;4996565;28;20049;-74
2021/01/01 13:18:31;;;;;;;2.72;2.13;;;2.60;99.90;;;;;;4994825;28;20109;-73
2021/01/01 13:20:57;;;;;;;2.55;1.98;;;2.40;99.90;;;;;;4995804;28;20026;-73
2021/01/01 13:23:23;;;;;;;2.97;2.42;;;2.70;99.90;;;;;;4995829;28;20036;-73
2021/01/01 13:25:49;;;;;;;2.95;2.40;;;2.50;99.90;;;;;;4995850;28;20023;-74
2021/01/01 13:28:15;;;;;;;2.38;2.10;;;2.10;99.90;;;;;;4995373;28;20050;-73
2021/01/01 13:30:41;;;;;;;2.33;1.90;;;2.10;99.90;;;;;;4995173;28;20478;-83
2021/01/01 13:33:06;;;;;;;2.28;2.08;;;2.30;99.90;;;;;;4994964;28;20031;-76
2021/01/01 13:35:32;;;;;;;2.28;2.00;;;2.20;99.90;;;;;;4995794;28;20030;-77
2021/01/01 13:37:58;;;;;;;2.78;2.20;;;2.00;99.90;;;;;;4994260;28;20394;-76
2021/01/01 13:40:24;;;;;;;2.30;2.10;;;1.80;99.90;;;;;;4995235;28;20022;-77
2021/01/01 13:42:51;;;;;;;3.22;2.38;;;1.50;99.90;;;;;;4995665;28;20060;-78
2021/01/01 13:45:17;;;;;;;5.43;3.83;;;1.40;99.90;;;;;;4995342;28;20336;-79
2021/01/01 13:47:43;;;;;;;2.60;2.33;;;1.40;99.90;;;;;;4995588;28;20030;-79
2021/01/01 13:50:10;;;;;;;2.47;2.05;;;1.30;99.90;;;;;;4995430;28;20026;-82
2021/01/01 13:52:36;;;;;;;2.28;2.08;;;1.10;99.90;;;;;;4995105;28;20085;-82
2021/01/01 13:55:02;;;;;;;5.07;4.28;;;1.00;99.90;;;;;;4995388;28;20030;-82
2021/01/01 13:57:27;;;;;;;2.33;2.13;;;0.90;99.90;;;;;;4994953;28;20085;-80
2021/01/01 13:59:53;;;;;;;2.08;1.88;;;0.80;99.90;;;;;;4995327;28;20029;-80
2021/01/01 14:02:19;;;;;;;1.70;1.60;;;0.70;99.90;;;;;;4994933;28;20033;-81
2021/01/01 14:04:44;;;;;;;2.03;1.80;;;0.60;99.90;;;;;;4995056;28;20589;-79
2021/01/01 14:07:10;;;;;;;2.20;2.00;;;0.60;99.90;;;;;;4994744;28;20084;-80
2021/01/01 14:09:36;;;;;;;2.67;2.28;;;0.60;99.90;;;;;;4994836;28;20049;-80
2021/01/01 14:12:01;;;;;;;2.30;1.85;;;0.60;99.90;;;;;;4994012;28;20501;-79
2021/01/01 14:14:27;;;;;;;2.22;2.00;;;0.50;99.90;;;;;;4994712;28;20105;-79
2021/01/01 14:16:53;;;;;;;2.47;1.77;;;0.60;99.90;;;;;;4994914;28;20030;-83
2021/01/01 14:19:20;;;;;;;1.92;1.83;;;0.50;99.90;;;;;;4994430;28;20050;-79
2021/01/01 14:21:46;;;;;;;2.97;2.33;;;0.50;99.90;;;;;;4994750;28;20057;-80
2021/01/01 14:24:14;;;;;;;2.78;2.10;;;0.60;99.90;;;;;;4994579;28;20065;-79
2021/01/01 14:26:48;;;;;;;2.72;2.13;;;0.60;99.90;;;;;;4994839;28;20030;-81
2021/01/01 14:29:14;;;;;;;2.45;2.00;;;0.50;99.90;;;;;;4994485;28;20498;-82
2021/01/01 14:31:40;;;;;;;2.10;1.80;;;0.50;99.90;;;;;;4994486;28;20034;-82
2021/01/01 14:34:07;;;;;;;2.05;1.77;;;0.40;99.90;;;;;;4994686;28;20034;-81
2021/01/01 14:36:37;;;;;;;1.92;1.83;;;0.40;99.90;;;;;;4994397;28;20038;-83
2021/01/01 14:39:08;;;;;;;2.08;1.88;;;0.40;99.90;;;;;;4994362;28;20048;-77
2021/01/01 14:41:33;;;;;;;;;;;0.30;99.90;;;;;;4994728;28;20030;-80
2021/01/01 14:43:59;;;;;;;2.15;1.50;;;0.40;99.90;;;;;;4994576;28;19906;-80
2021/01/01 14:46:26;;;;;;;1.98;1.75;;;0.30;99.90;;;;;;4994200;28;20390;-78
2021/01/01 14:48:52;;;;;;;1.40;1.30;;;0.30;99.90;;;;;;4988232;28;20508;-76
2021/01/01 14:51:18;;;;;;;2.28;1.70;;;0.30;99.90;;;;;;4991362;28;20077;-76
2021/01/01 14:53:51;;;;;;;1.52;1.40;;;0.20;99.90;;;;;;4993907;28;20413;-77
2021/01/01 14:56:17;;;;;;;3.65;2.50;;;0.20;99.90;;;;;;4993343;28;20103;-76
2021/01/01 14:58:45;;;;;;;5.60;2.92;;;0.30;99.90;;;;;;4993581;28;20025;-75
2021/01/01 15:01:11;;;;;;;3.35;2.45;;;0.30;99.90;;;;;;4993387;28;20022;-75
2021/01/01 15:03:37;;;;;;;8.82;3.85;;;0.20;99.90;;;;;;4993152;28;20023;-74
2021/01/01 15:06:02;;;;;;;4.32;2.42;;;0.20;99.90;;;;;;4993140;28;20026;-74
2021/01/01 15:08:28;;;;;;;4.95;2.75;;;0.20;99.90;;;;;;4991194;28;20483;-74
2021/01/01 15:10:54;;;;;;;8.02;3.65;;;0.30;99.90;;;;;;4993676;28;20035;-80
2021/01/01 15:13:20;;;;;;;8.02;3.00;;;0.30;99.90;;;;;;4994076;28;20034;-80
2021/01/01 15:15:45;;;;;;;1.92;1.48;;;0.30;99.90;;;;;;4993366;28;20474;-82
2021/01/01 15:18:11;;;;;;;1.70;1.60;;;0.40;99.90;;;;;;4992849;28;20104;-81
2021/01/01 15:20:37;;;;;;;2.90;1.80;;;0.40;99.90;;;;;;4991953;28;20034;-81
2021/01/01 15:23:03;;;;;;;2.70;1.60;;;0.40;99.90;;;;;;4991038;28;20084;-82
2021/01/01 15:25:29;;;;;;;1.90;1.58;;;0.40;99.90;;;;;;4993843;28;20018;-81
2021/01/01 15:27:56;;;;;;;1.95;1.85;;;0.40;99.90;;;;;;4993709;28;20378;-81
2021/01/01 15:30:22;;;;;;;1.90;1.67;;;0.40;99.90;;;;;;4993490;28;20434;-81
2021/01/01 15:32:48;;;;;;;1.58;1.33;;;0.40;99.90;;;;;;4992091;28;20081;-81
2021/01/01 15:35:14;;;;;;;2.80;1.80;;;0.40;99.90;;;;;;4993025;28;20373;-82
2021/01/01 15:37:40;;;;;;;1.98;1.80;;;0.40;99.90;;;;;;4992668;28;20030;-81
2021/01/01 15:40:07;;;;;;;2.40;1.90;;;0.40;99.90;;;;;;4992677;28;20018;-81
2021/01/01 15:42:33;;;;;;;2.05;1.85;;;0.40;99.90;;;;;;4993122;28;20088;-80
2021/01/01 15:44:59;;;;;;;2.50;1.90;;;0.40;99.90;;;;;;4993520;28;20022;-81
2021/01/01 15:47:25;;;;;;;1.90;1.60;;;0.40;99.90;;;;;;4992965;28;20042;-81
2021/01/01 15:49:51;;;;;;;2.10;1.80;;;0.40;99.90;;;;;;4993452;28;20466;-79
2021/01/01 15:52:17;;;;;;;2.53;1.92;;;0.30;99.90;;;;;;4993243;28;20026;-80
2021/01/01 15:54:44;;;;;;;4.07;2.15;;;0.30;99.90;;;;;;4993143;28;20573;-80
2021/01/01 15:57:10;;;;;;;2.42;1.90;;;0.30;99.90;;;;;;4992096;28;20054;-81
2021/01/01 15:59:40;;;;;;;1.98;1.63;;;0.30;99.90;;;;;;4990823;28;20108;-82
2021/01/01 16:02:06;;;;;;;;;;;0.20;99.90;;;;;;4992901;28;20026;-80
2021/01/01 16:04:32;;;;;;;2.00;1.83;;;0.30;99.90;;;;;;4993173;28;19976;-81
2021/01/01 16:06:58;;;;;;;2.22;1.85;;;0.30;99.90;;;;;;4991908;28;20019;-77
2021/01/01 16:09:24;;;;;;;4.43;2.33;;;0.20;99.90;;;;;;4992073;28;20045;-76
2021/01/01 16:11:50;;;;;;;3.10;2.00;;;0.20;99.90;;;;;;4992481;28;20030;-82
2021/01/01 16:14:15;;;;;;;4.07;2.50;;;0.20;99.90;;;;;;4992600;28;20022;-81
2021/01/01 16:16:41;;;;;;;3.03;2.00;;;0.20;99.90;;;;;;4992054;28;20030;-80
2021/01/01 16:19:09;;;;;;;1.77;1.67;;;0.10;99.90;;;;;;4991886;28;20112;-81
2021/01/01 16:21:36;;;;;;;3.08;2.22;;;0.10;99.90;;;;;;4992203;28;20034;-80
2021/01/01 16:24:02;;;;;;;3.10;2.35;;;0.00;99.90;;;;;;4992753;28;20041;-80
2021/01/01 16:26:28;;;;;;;2.63;2.20;;;0.00;99.90;;;;;;4992561;28;20027;-79
2021/01/01 16:28:54;;;;;;;2.92;2.17;;;0.00;99.90;;;;;;4992895;28;20057;-80
2021/01/01 16:31:19;;;;;;;2.90;2.25;;;-0.10;99.90;;;;;;4992597;28;20023;-80
2021/01/01 16:33:45;;;;;;;2.47;2.10;;;0.00;99.90;;;;;;4992146;28;20045;-79
2021/01/01 16:36:24;;;;;;;3.05;2.20;;;0.00;99.90;;;;;;4996034;28;20034;-83
2021/01/01 16:38:50;;;;;;;4.93;2.65;;;0.10;99.90;;;;;;4996792;28;20023;-82
2021/01/01 16:41:16;;;;;;;2.10;1.90;;;0.10;99.90;;;;;;4995257;28;20023;-81
2021/01/01 16:43:41;;;;;;;2.17;1.88;;;0.10;99.90;;;;;;4996713;28;20037;-82
2021/01/01 16:46:08;;;;;;;4.07;2.63;;;0.10;99.90;;;;;;4996480;28;20042;-83
2021/01/01 16:48:34;;;;;;;3.25;2.90;;;0.10;99.90;;;;;;4996565;28;20018;-81
2021/01/01 16:51:00;;;;;;;3.58;2.60;;;0.10;99.90;;;;;;4996482;28;20433;-80
2021/01/01 16:53:25;;;;;;;2.72;2.22;;;0.10;99.90;;;;;;4996301;28;20030;-79
2021/01/01 16:55:51;;;;;;;3.70;2.78;;;0.10;99.90;;;;;;4996426;28;20043;-73
2021/01/01 16:58:17;;;;;;;2.58;1.88;;;0.10;99.90;;;;;;4991051;28;20037;-73
2021/01/01 17:00:43;;;;;;;2.60;1.98;;;0.10;99.90;;;;;;4995770;28;20077;-72
2021/01/01 17:03:08;;;;;;;3.15;2.38;;;0.10;99.90;;;;;;4995576;28;20026;-73
2021/01/01 17:05:34;;;;;;;2.45;1.77;;;1.30;99.90;;;;;;4995990;28;20453;-73
2021/01/01 17:08:00;;;;;;;2.13;1.92;;;1.30;99.90;;;;;;4996180;28;20034;-74
2021/01/01 17:10:25;;;;;;;2.45;1.98;;;1.00;99.90;;;;;;4996101;28;20838;-76
2021/01/01 17:12:51;;;;;;;2.70;1.98;;;0.80;99.90;;;;;;4996292;28;20125;-76
2021/01/01 17:15:17;;;;;;;3.35;2.22;;;0.70;99.90;;;;;;4995925;28;20027;-76
2021/01/01 17:17:43;;;;;;;4.05;2.67;;;0.60;99.90;;;;;;4997236;28;20038;-76
2021/01/01 17:20:09;;;;;;;4.95;2.92;;;0.50;99.90;;;;;;4995540;28;20498;-76
2021/01/01 17:22:35;;;;;;;4.45;3.63;;;0.50;99.90;;;;;;4995812;28;20034;-77
2021/01/01 17:25:02;;;;;;;6.00;3.97;;;0.50;99.90;;;;;;4995725;28;20066;-76
2021/01/01 17:27:28;;;;;;;4.38;3.90;;;0.40;99.90;;;;;;4995513;28;20033;-76
2021/01/01 17:29:54;;;;;;;3.08;2.75;;;0.40;99.90;;;;;;4995810;28;20019;-76
2021/01/01 17:32:20;;;;;;;3.08;2.50;;;0.30;99.90;;;;;;4995747;28;20141;-76
2021/01/01 17:34:46;;;;;;;3.00;2.60;;;0.30;99.90;;;;;;4995510;28;20485;-75
2021/01/01 17:37:11;;;;;;;5.60;3.05;;;0.30;99.90;;;;;;4995295;28;20041;-76
2021/01/01 17:39:37;;;;;;;4.10;3.40;;;0.30;99.90;;;;;;4995563;28;20023;-75
2021/01/01 17:42:06;;;;;;;5.55;3.97;;;0.60;99.90;;;;;;4995670;28;20026;-79
2021/01/01 17:44:32;;;;;;;4.15;3.10;;;0.60;99.90;;;;;;4995200;28;20030;-79
2021/01/01 17:47:02;;;;;;;3.33;2.65;;;0.60;99.90;;;;;;4993947;28;20492;-80
2021/01/01 17:49:28;;;;;;;2.97;2.60;;;0.50;99.90;;;;;;4995172;28;20030;-76
2021/01/01 17:51:54;;;;;;;2.60;2.40;;;0.50;99.90;;;;;;4995252;28;20057;-75
2021/01/01 17:54:19;;;;;;;3.03;2.65;;;0.40;99.90;;;;;;4995460;28;20022;-76
2021/01/01 17:56:45;;;;;;;3.08;2.40;;;0.40;99.90;;;;;;4995090;28;20516;-77
2021/01/01 17:59:11;;;;;;;4.40;2.20;;;0.40;99.90;;;;;;4995267;28;20029;-76
2021/01/01 18:01:36;;;;;;;2.33;2.10;;;0.30;99.90;;;;;;4995060;28;20474;-77
2021/01/01 18:04:02;;;;;;;5.38;3.90;;;0.20;99.90;;;;;;4995126;28;20026;-75
2021/01/01 18:06:28;;;;;;;6.82;3.60;;;0.20;99.90;;;;;;4994805;28;20481;-75
2021/01/01 18:08:53;;;;;;;3.15;2.65;;;0.20;99.90;;;;;;4995242;28;20022;-75
2021/01/01 18:11:21;;;;;;;2.70;2.30;;;0.10;99.90;;;;;;4994737;28;20035;-77
2021/01/01 18:13:47;;;;;;;3.15;2.08;;;0.10;99.90;;;;;;4994897;28;20030;-76
2021/01/01 18:16:13;;;;;;;3.25;1.77;;;0.10;99.90;;;;;;4994373;28;20022;-77
2021/01/01 18:18:39;;;;;;;2.25;2.03;;;0.10;99.90;;;;;;4994025;28;20046;-77
2021/01/01 18:21:05;;;;;;;2.85;2.00;;;0.10;99.90;;;;;;4994387;28;20096;-77
2021/01/01 18:23:35;;;;;;;3.03;2.20;;;0.10;99.90;;;;;;4993974;28;20086;-76
2021/01/01 18:26:10;;;;;;;4.72;2.63;;;0.10;99.90;;;;;;4994551;28;20025;-76
2021/01/01 18:28:43;;;;;;;3.80;2.20;;;0.20;99.90;;;;;;4994021;28;20031;-77
2021/01/01 18:31:12;;;;;;;2.83;2.20;;;0.20;99.90;;;;;;4995011;28;20483;-77
2021/01/01 18:33:39;;;;;;;3.10;2.30;;;0.20;99.90;;;;;;4994620;28;20477;-77
2021/01/01 18:36:13;;;;;;;3.35;2.60;;;0.20;99.90;;;;;;4993358;28;20393;-77
2021/01/01 18:38:48;;;;;;;4.10;2.67;;;0.20;99.90;;;;;;4994493;28;20074;-77
2021/01/01 18:41:16;;;;;;;3.92;2.90;;;0.20;99.90;;;;;;4994357;28;20559;-75
2021/01/01 18:43:53;;;;;;;6.55;3.65;;;0.20;99.90;;;;;;4993076;28;20104;-77
2021/01/01 18:46:20;;;;;;;12.18;6.10;;;0.10;99.90;;;;;;4994195;28;20019;-76
2021/01/01 18:48:49;;;;;;;11.88;6.43;;;0.10;99.90;;;;;;4994439;28;20030;-76
2021/01/01 18:51:15;;;;;;;4.95;3.63;;;0.10;99.90;;;;;;4994067;28;20022;-73
2021/01/01 18:53:45;;;;;;;4.63;2.67;;;0.10;99.90;;;;;;4994134;28;20030;-73
2021/01/01 18:56:12;;;;;;;3.17;2.30;;;0.10;99.90;;;;;;4994316;28;20050;-74
2021/01/01 18:59:02;;;;;;;2.75;2.25;;;0.10;99.90;;;;;;4992460;28;20085;-73
2021/01/01 19:01:33;;;;;;;6.82;2.97;;;0.10;99.90;;;;;;4994172;28;20022;-78
2021/01/01 19:04:14;;;;;;;5.30;3.42;;;0.10;99.90;;;;;;4992716;28;20035;-76
2021/01/01 19:07:01;;;;;;;4.18;2.30;;;0.40;99.90;;;;;;4993841;28;20122;-80
2021/01/01 19:09:27;;;;;;;3.67;2.75;;;0.30;99.90;;;;;;4993832;28;20022;-80
2021/01/01 19:11:56;;;;;;;4.25;3.53;;;0.30;99.90;;;;;;4993767;28;20460;-80
2021/01/01 19:14:25;;;;;;;5.78;3.35;;;0.20;99.90;;;;;;4993673;28;20026;-78
2021/01/01 19:16:56;;;;;;;4.70;3.80;;;0.20;99.90;;;;;;4993515;28;20062;-77
2021/01/01 19:19:30;;;;;;;5.25;3.08;;;0.10;99.90;;;;;;4993349;28;20513;-78
2021/01/01 19:22:02;;;;;;;3.78;2.88;;;0.10;99.90;;;;;;4993788;28;20041;-79
2021/01/01 19:24:39;;;;;;;4.07;2.92;;;0.00;99.90;;;;;;4993555;28;20034;-79
2021/01/01 19:27:10;;;;;;;4.40;3.15;;;0.00;99.90;;;;;;4993704;28;20070;-78